createdAt,value
2018-06-05T00:02:27.681Z,38.40
2018-06-05T00:05:02.013Z,40.40
2018-06-05T00:07:36.647Z,39.83
2018-06-05T00:10:11.163Z,38.63
2018-06-05T00:12:45.552Z,41.63
2018-06-05T00:15:19.892Z,39.70
2018-06-05T00:17:54.636Z,42.77
2018-06-05T00:20:29.053Z,41.40
2018-06-05T00:23:03.319Z,43.57
2018-06-05T00:25:37.632Z,43.00
2018-06-05T00:28:12.064Z,45.13
2018-06-05T00:30:46.342Z,45.20
2018-06-05T00:33:20.759Z,46.60
2018-06-05T00:35:54.967Z,44.40
2018-06-05T00:38:29.308Z,45.27
2018-06-05T00:41:03.649Z,45.37
2018-06-05T00:43:37.984Z,43.80
2018-06-05T00:46:12.371Z,46.33
2018-06-05T00:48:46.801Z,43.77
2018-06-05T00:51:32.547Z,45.40
2018-06-05T00:54:06.948Z,42.90
2018-06-05T00:56:48.159Z,44.73
2018-06-05T00:59:22.508Z,43.57
2018-06-05T01:01:56.831Z,44.47
2018-06-05T01:04:31.133Z,42.90
2018-06-05T01:07:05.666Z,41.63
2018-06-05T01:09:40.116Z,42.20
2018-06-05T01:12:14.470Z,43.37
2018-06-05T01:14:48.866Z,40.77
2018-06-05T01:17:23.203Z,40.73
2018-06-05T01:19:57.571Z,41.80
2018-06-05T01:22:32.003Z,41.17
2018-06-05T01:25:06.472Z,42.90
2018-06-05T01:27:40.923Z,39.27
2018-06-05T01:30:15.186Z,38.53
2018-06-05T01:32:49.832Z,40.17
2018-06-05T01:35:24.234Z,41.47
2018-06-05T01:37:58.559Z,41.57
2018-06-05T01:40:32.817Z,40.17
2018-06-05T01:43:07.027Z,40.30
2018-06-05T01:45:41.472Z,38.80
2018-06-05T01:48:15.823Z,39.03
2018-06-05T01:50:50.250Z,41.07
2018-06-05T01:53:31.279Z,40.53
2018-06-05T01:56:05.759Z,39.73
2018-06-05T01:58:40.176Z,38.73
2018-06-05T02:01:14.609Z,38.43
2018-06-05T02:03:48.987Z,40.73
2018-06-05T02:06:23.279Z,39.00
2018-06-05T02:08:57.698Z,40.00
2018-06-05T02:11:32.064Z,39.03
2018-06-05T02:14:06.468Z,38.57
2018-06-05T02:16:40.860Z,40.30
2018-06-05T02:19:15.166Z,38.03
2018-06-05T02:21:49.897Z,39.23
2018-06-05T02:24:24.244Z,39.30
2018-06-05T02:26:58.599Z,38.67
2018-06-05T02:29:32.883Z,39.20
2018-06-05T02:32:07.232Z,38.33
2018-06-05T02:34:41.544Z,38.10
2018-06-05T02:37:15.876Z,38.93
2018-06-05T02:39:50.387Z,39.03
2018-06-05T02:42:24.743Z,37.50
2018-06-05T02:44:59.351Z,39.87
2018-06-05T02:47:33.787Z,40.27
2018-06-05T02:50:08.103Z,38.63
2018-06-05T02:52:42.516Z,39.10
2018-06-05T02:55:16.996Z,36.63
2018-06-05T02:57:51.379Z,38.77
2018-06-05T03:00:25.756Z,38.87
2018-06-05T03:03:00.051Z,38.50
2018-06-05T03:05:34.280Z,39.57
2018-06-05T03:08:08.643Z,38.67
2018-06-05T03:10:42.997Z,38.27
2018-06-05T03:13:17.416Z,40.30
2018-06-05T03:15:51.776Z,38.83
2018-06-05T03:18:26.260Z,39.23
2018-06-05T03:21:00.620Z,37.93
2018-06-05T03:23:35.195Z,36.10
2018-06-05T03:26:09.608Z,38.47
2018-06-05T03:28:43.964Z,36.77
2018-06-05T03:31:18.351Z,37.93
2018-06-05T03:33:52.739Z,40.63
2018-06-05T03:36:27.011Z,39.53
2018-06-05T03:39:01.415Z,37.97
2018-06-05T03:41:35.807Z,36.83
2018-06-05T03:44:10.164Z,37.77
2018-06-05T03:46:44.509Z,37.40
2018-06-05T03:49:18.844Z,37.27
2018-06-05T03:51:53.130Z,35.40
2018-06-05T03:54:27.467Z,36.13
2018-06-05T03:57:01.819Z,37.47
2018-06-05T03:59:36.199Z,35.13
2018-06-05T04:02:10.576Z,36.73
2018-06-05T04:04:44.864Z,35.80
2018-06-05T04:07:19.240Z,37.33
2018-06-05T04:09:53.640Z,36.40
2018-06-05T04:12:28.064Z,34.57
2018-06-05T04:15:02.458Z,34.33
2018-06-05T04:17:36.814Z,35.17
2018-06-05T04:20:11.199Z,34.43
2018-06-05T04:22:45.647Z,34.53
2018-06-05T04:25:20.272Z,34.93
2018-06-05T04:27:54.645Z,33.83
2018-06-05T04:30:28.995Z,33.53
2018-06-05T04:33:03.364Z,34.57
2018-06-05T04:35:37.723Z,34.63
2018-06-05T04:38:12.108Z,30.63
2018-06-05T04:40:46.753Z,31.53
2018-06-05T04:43:21.192Z,34.77
2018-06-05T04:45:55.631Z,33.57
2018-06-05T04:48:30.040Z,36.60
2018-06-05T04:51:04.561Z,33.90
2018-06-05T04:53:38.941Z,34.70
2018-06-05T04:56:13.304Z,34.53
2018-06-05T04:58:47.583Z,33.93
2018-06-05T05:01:21.906Z,32.37
2018-06-05T05:03:56.163Z,33.60
2018-06-05T05:06:30.539Z,33.67
2018-06-05T05:09:06.744Z,33.43
2018-06-05T05:11:41.088Z,32.87
2018-06-05T05:14:15.459Z,33.10
2018-06-05T05:16:50.080Z,32.77
2018-06-05T05:19:24.385Z,31.57
2018-06-05T05:21:58.886Z,31.60
2018-06-05T05:24:33.199Z,29.70
2018-06-05T05:27:07.886Z,31.67
2018-06-05T05:29:42.122Z,30.83
2018-06-05T05:32:16.806Z,32.10
2018-06-05T05:34:51.159Z,30.23
2018-06-05T05:37:25.572Z,32.40
2018-06-05T05:39:59.959Z,31.73
2018-06-05T05:42:34.318Z,33.00
2018-06-05T05:45:08.915Z,31.97
2018-06-05T05:47:43.288Z,31.97
2018-06-05T05:50:17.707Z,31.47
2018-06-05T05:52:51.976Z,31.03
2018-06-05T05:55:26.355Z,31.13
2018-06-05T05:58:00.691Z,31.53
2018-06-05T06:00:35.132Z,31.43
2018-06-05T06:03:09.732Z,29.37
2018-06-05T06:05:44.041Z,30.50
2018-06-05T06:08:18.440Z,29.77
2018-06-05T06:10:52.821Z,29.70
2018-06-05T06:13:27.287Z,29.60
2018-06-05T06:16:01.719Z,30.57
2018-06-05T06:18:36.030Z,31.60
2018-06-05T06:21:10.455Z,29.80
2018-06-05T06:23:44.887Z,32.27
2018-06-05T06:26:19.279Z,29.57
2018-06-05T06:28:53.723Z,30.77
2018-06-05T06:31:28.131Z,29.97
2018-06-05T06:34:02.819Z,30.23
2018-06-05T06:36:37.288Z,30.43
2018-06-05T06:39:11.671Z,28.37
2018-06-05T06:41:46.007Z,28.13
2018-06-05T06:44:20.424Z,28.10
2018-06-05T06:46:54.835Z,29.97
2018-06-05T06:49:29.595Z,29.97
2018-06-05T06:52:03.872Z,30.10
2018-06-05T06:54:38.219Z,29.20
2018-06-05T06:57:12.636Z,30.30
2018-06-05T06:59:47.063Z,30.53
2018-06-05T07:02:21.306Z,28.50
2018-06-05T07:04:55.583Z,30.73
2018-06-05T07:07:29.940Z,29.63
2018-06-05T07:10:04.463Z,30.93
2018-06-05T07:12:38.954Z,31.50
2018-06-05T07:15:13.288Z,31.80
2018-06-05T07:17:47.495Z,34.30
2018-06-05T07:20:21.845Z,32.97
2018-06-05T07:22:56.050Z,31.60
2018-06-05T07:25:30.365Z,31.83
2018-06-05T07:28:04.678Z,33.03
2018-06-05T07:30:39.123Z,31.87
2018-06-05T07:33:13.416Z,31.27
2018-06-05T07:35:47.858Z,32.53
2018-06-05T07:38:22.685Z,31.60
2018-06-05T07:40:57.123Z,31.90
2018-06-05T07:43:31.486Z,31.77
2018-06-05T07:46:06.204Z,31.07
2018-06-05T07:48:40.683Z,32.00
2018-06-05T07:51:15.021Z,31.63
2018-06-05T07:53:49.299Z,32.27
2018-06-05T07:56:23.788Z,32.70
2018-06-05T07:58:58.142Z,32.47
2018-06-05T08:01:32.614Z,33.50
2018-06-05T08:04:07.088Z,33.63
2018-06-05T08:06:41.724Z,32.83
2018-06-05T08:09:16.225Z,32.80
2018-06-05T08:11:50.696Z,31.10
2018-06-05T08:14:25.131Z,31.47
2018-06-05T08:16:59.724Z,31.93
2018-06-05T08:19:34.300Z,32.17
2018-06-05T08:22:08.719Z,30.10
2018-06-05T08:24:43.289Z,31.57
2018-06-05T08:27:17.884Z,31.87
2018-06-05T08:29:52.241Z,30.87
2018-06-05T08:32:26.772Z,31.70
2018-06-05T08:35:01.391Z,29.77
2018-06-05T08:37:35.953Z,28.87
2018-06-05T08:40:10.404Z,29.50
2018-06-05T08:42:51.481Z,29.13
2018-06-05T08:45:26.268Z,30.20
2018-06-05T08:48:00.909Z,28.57
2018-06-05T08:50:35.476Z,29.57
2018-06-05T08:53:09.997Z,28.80
2018-06-05T08:55:44.520Z,31.03
2018-06-05T08:58:19.116Z,31.63
2018-06-05T09:00:53.444Z,29.13
2018-06-05T09:03:27.898Z,30.30
2018-06-05T09:06:02.469Z,32.37
2018-06-05T09:08:36.780Z,33.80
2018-06-05T09:11:11.196Z,33.50
2018-06-05T09:13:45.620Z,32.57
2018-06-05T09:16:19.991Z,33.53
2018-06-05T09:18:54.345Z,32.73
2018-06-05T09:21:28.692Z,33.47
2018-06-05T09:24:03.180Z,33.03
2018-06-05T09:26:37.672Z,33.00
2018-06-05T09:29:12.367Z,33.97
2018-06-05T09:31:47.044Z,35.27
2018-06-05T09:34:21.679Z,34.77
2018-06-05T09:36:56.306Z,36.37
2018-06-05T09:39:30.778Z,36.40
2018-06-05T09:42:05.157Z,36.93
2018-06-05T09:44:39.599Z,35.53
2018-06-05T09:47:14.191Z,35.83
2018-06-05T09:49:48.636Z,36.20
2018-06-05T09:52:23.242Z,37.40
2018-06-05T09:54:57.756Z,36.40
2018-06-05T09:57:32.213Z,35.23
2018-06-05T10:00:06.769Z,37.30
2018-06-05T10:02:41.243Z,35.73
2018-06-05T10:05:15.663Z,33.70
2018-06-05T10:07:50.200Z,36.70
2018-06-05T10:10:24.689Z,36.00
2018-06-05T10:12:59.100Z,36.37
2018-06-05T10:15:33.704Z,35.97
2018-06-05T10:18:08.144Z,38.70
2018-06-05T10:20:42.493Z,38.10
2018-06-05T10:23:16.900Z,39.07
2018-06-05T10:25:51.456Z,39.00
2018-06-05T10:28:25.854Z,37.77
2018-06-05T10:31:00.324Z,39.50
2018-06-05T10:33:34.808Z,38.47
2018-06-05T10:36:09.268Z,38.87
2018-06-05T10:38:43.913Z,39.30
2018-06-05T10:41:18.493Z,41.30
2018-06-05T10:43:52.880Z,41.33
2018-06-05T10:46:27.308Z,40.63
2018-06-05T10:49:01.710Z,39.03
2018-06-05T10:51:36.061Z,39.60
2018-06-05T10:54:10.810Z,38.87
2018-06-05T10:56:45.288Z,38.27
2018-06-05T10:59:19.857Z,38.80
2018-06-05T11:01:54.216Z,39.97
2018-06-05T11:04:28.676Z,39.93
2018-06-05T11:07:03.200Z,38.07
2018-06-05T11:09:37.808Z,40.17
2018-06-05T11:12:12.172Z,38.10
2018-06-05T11:14:46.437Z,37.63
2018-06-05T11:17:20.962Z,37.07
2018-06-05T11:19:55.335Z,38.47
2018-06-05T11:22:29.981Z,39.47
2018-06-05T11:25:04.597Z,37.97
2018-06-05T11:27:39.108Z,40.87
2018-06-05T11:30:13.455Z,39.90
2018-06-05T11:32:47.978Z,39.67
2018-06-05T11:35:22.893Z,40.27
2018-06-05T11:37:57.223Z,38.23
2018-06-05T11:40:31.585Z,37.83
2018-06-05T11:43:06.004Z,38.10
2018-06-05T11:45:40.396Z,36.87
2018-06-05T11:48:14.783Z,38.33
2018-06-05T11:50:49.193Z,35.67
2018-06-05T11:53:23.809Z,36.87
2018-06-05T11:55:58.221Z,35.87
2018-06-05T11:58:32.612Z,37.10
2018-06-05T12:01:07.097Z,38.03
2018-06-05T12:03:41.497Z,37.97
2018-06-05T12:06:16.176Z,36.20
2018-06-05T12:08:50.760Z,34.50
2018-06-05T12:11:25.165Z,34.03
2018-06-05T12:13:59.590Z,33.53
2018-06-05T12:16:34.153Z,33.30
2018-06-05T12:19:08.696Z,36.30
2018-06-05T12:21:43.112Z,32.90
2018-06-05T12:24:17.856Z,31.67
2018-06-05T12:26:52.460Z,31.30
2018-06-05T12:29:27.004Z,31.63
2018-06-05T12:32:01.564Z,31.63
2018-06-05T12:34:36.081Z,32.37
2018-06-05T12:37:10.536Z,33.37
2018-06-05T12:39:45.062Z,32.90
2018-06-05T12:42:19.644Z,32.33
2018-06-05T12:44:54.240Z,30.97
2018-06-05T12:47:28.773Z,31.93
2018-06-05T12:50:03.256Z,29.33
2018-06-05T12:52:37.785Z,29.83
2018-06-05T12:55:12.172Z,28.50
2018-06-05T12:57:46.666Z,28.20
2018-06-05T13:00:21.215Z,27.73
2018-06-05T13:02:55.684Z,30.53
2018-06-05T13:05:30.068Z,28.63
2018-06-05T13:08:04.486Z,31.23
2018-06-05T13:10:38.900Z,30.97
2018-06-05T13:13:13.408Z,30.60
2018-06-05T13:15:47.796Z,30.20
2018-06-05T13:18:22.158Z,30.77
2018-06-05T13:20:56.592Z,30.77
2018-06-05T13:23:30.984Z,30.93
2018-06-05T13:26:05.381Z,29.17
2018-06-05T13:28:39.796Z,31.20
2018-06-05T13:31:14.612Z,30.37
2018-06-05T13:33:52.379Z,30.10
2018-06-05T13:36:26.968Z,28.17
2018-06-05T13:39:01.541Z,28.30
2018-06-05T13:41:36.137Z,29.07
2018-06-05T13:44:10.352Z,29.43
2018-06-05T13:46:44.820Z,30.87
2018-06-05T13:49:19.281Z,28.17
2018-06-05T13:51:54.056Z,27.83
2018-06-05T13:54:28.529Z,28.53
2018-06-05T13:57:03.214Z,29.10
2018-06-05T13:59:37.749Z,28.47
2018-06-05T14:02:12.100Z,30.00
2018-06-05T14:04:46.984Z,29.13
2018-06-05T14:07:21.453Z,31.23
2018-06-05T14:09:56.243Z,30.57
2018-06-05T14:12:30.832Z,31.27
2018-06-05T14:15:05.516Z,32.80
2018-06-05T14:17:39.908Z,32.20
2018-06-05T14:20:14.344Z,33.47
2018-06-05T14:22:48.723Z,33.17
2018-06-05T14:25:23.292Z,33.00
2018-06-05T14:27:57.825Z,34.67
2018-06-05T14:30:32.228Z,36.60
2018-06-05T14:33:06.596Z,35.10
2018-06-05T14:35:40.968Z,34.43
2018-06-05T14:38:15.311Z,34.20
2018-06-05T14:40:49.908Z,30.93
2018-06-05T14:43:24.312Z,32.60
2018-06-05T14:45:58.665Z,32.60
2018-06-05T14:48:33.113Z,33.30
2018-06-05T14:51:07.917Z,32.97
2018-06-05T14:53:42.632Z,33.93
2018-06-05T14:56:17.477Z,32.57
2018-06-05T14:58:52.032Z,33.03
2018-06-05T15:01:26.608Z,32.80
2018-06-05T15:04:01.092Z,32.90
2018-06-05T15:06:35.644Z,33.77
2018-06-05T15:09:09.990Z,31.63
2018-06-05T15:11:44.304Z,32.10
2018-06-05T15:14:18.679Z,31.00
2018-06-05T15:16:54.815Z,31.33
2018-06-05T15:19:30.033Z,30.23
2018-06-05T15:22:04.692Z,30.17
2018-06-05T15:24:39.180Z,29.83
2018-06-05T15:27:13.548Z,31.10
2018-06-05T15:29:47.995Z,29.63
2018-06-05T15:32:22.436Z,29.93
2018-06-05T15:34:56.746Z,29.03
2018-06-05T15:37:31.320Z,27.80
2018-06-05T15:40:06.004Z,27.77
2018-06-05T15:42:40.394Z,27.37
2018-06-05T15:45:14.881Z,27.03
2018-06-05T15:47:49.300Z,27.07
2018-06-05T15:50:24.127Z,29.47
2018-06-05T15:52:58.528Z,28.20
2018-06-05T15:55:32.917Z,27.53
2018-06-05T15:58:07.598Z,30.00
2018-06-05T16:00:42.336Z,33.07
2018-06-05T16:03:17.102Z,30.43
2018-06-05T16:05:51.660Z,31.60
2018-06-05T16:08:26.030Z,33.40
2018-06-05T16:11:00.432Z,35.43
2018-06-05T16:13:35.009Z,39.87
2018-06-05T16:16:09.435Z,42.00
2018-06-05T16:18:43.900Z,34.67
2018-06-05T16:21:18.388Z,37.00
2018-06-05T16:23:52.695Z,38.60
2018-06-05T16:26:27.097Z,40.83
2018-06-05T16:29:01.407Z,39.43
2018-06-05T16:31:35.703Z,38.27
2018-06-05T16:34:10.087Z,41.77
2018-06-05T16:36:44.400Z,41.83
2018-06-05T16:39:18.845Z,43.23
2018-06-05T16:41:53.252Z,45.13
2018-06-05T16:44:27.698Z,46.03
2018-06-05T16:47:02.096Z,46.50
2018-06-05T16:49:36.455Z,45.07
2018-06-05T16:52:10.823Z,44.37
2018-06-05T16:54:45.067Z,46.40
2018-06-05T16:57:19.440Z,45.73
2018-06-05T16:59:53.740Z,45.23
2018-06-05T17:02:28.024Z,44.27
2018-06-05T17:05:02.421Z,42.77
2018-06-05T17:07:36.791Z,44.83
2018-06-05T17:10:11.152Z,44.30
2018-06-05T17:12:45.574Z,42.77
2018-06-05T17:15:19.939Z,41.93
2018-06-05T17:17:54.315Z,39.97
2018-06-05T17:20:28.600Z,39.17
2018-06-05T17:23:03.179Z,39.00
2018-06-05T17:25:37.631Z,38.50
2018-06-05T17:28:12.059Z,37.33
2018-06-05T17:30:46.444Z,35.40
2018-06-05T17:33:20.807Z,36.93
2018-06-05T17:35:55.153Z,34.93
2018-06-05T17:38:29.564Z,33.97
2018-06-05T17:41:03.921Z,33.47
2018-06-05T17:43:38.212Z,30.77
2018-06-05T17:46:12.583Z,30.20
2018-06-05T17:48:46.947Z,31.17
2018-06-05T17:51:21.313Z,30.23
2018-06-05T17:53:55.887Z,29.87
2018-06-05T17:56:30.687Z,31.53
2018-06-05T17:59:04.999Z,31.90
2018-06-05T18:01:39.516Z,29.07
2018-06-05T18:04:13.915Z,30.80
2018-06-05T18:06:48.194Z,30.97
2018-06-05T18:09:22.591Z,30.70
2018-06-05T18:11:57.030Z,30.53
2018-06-05T18:14:31.735Z,29.97
2018-06-05T18:17:06.311Z,31.00
2018-06-05T18:19:40.711Z,31.33
2018-06-05T18:22:14.996Z,30.93
2018-06-05T18:24:49.436Z,31.67
2018-06-05T18:27:23.847Z,31.43
2018-06-05T18:29:58.307Z,31.30
2018-06-05T18:32:32.589Z,31.03
2018-06-05T18:35:06.999Z,30.47
2018-06-05T18:37:41.380Z,30.70
2018-06-05T18:40:15.859Z,30.93
2018-06-05T18:42:50.198Z,31.53
2018-06-05T18:45:24.616Z,30.20
2018-06-05T18:47:59.066Z,28.87
2018-06-05T18:50:33.434Z,31.00
2018-06-05T18:53:07.851Z,29.13
2018-06-05T18:55:42.304Z,30.50
2018-06-05T18:58:16.547Z,31.53
2018-06-05T19:00:50.935Z,30.47
2018-06-05T19:03:25.211Z,32.07
2018-06-05T19:05:59.563Z,31.43
2018-06-05T19:08:33.835Z,31.73
2018-06-05T19:11:08.175Z,31.77
2018-06-05T19:13:42.527Z,31.87
2018-06-05T19:16:29.719Z,32.83
2018-06-05T19:19:04.104Z,32.03
2018-06-05T19:21:38.532Z,32.13
2018-06-05T19:24:12.915Z,32.57
2018-06-05T19:26:47.303Z,31.13
2018-06-05T19:29:21.903Z,31.97
2018-06-05T19:31:56.388Z,30.70
2018-06-05T19:34:30.705Z,31.00
2018-06-05T19:37:05.048Z,32.57
2018-06-05T19:39:39.696Z,34.23
2018-06-05T19:42:14.470Z,32.00
2018-06-05T19:44:48.907Z,33.30
2018-06-05T19:47:23.208Z,34.10
2018-06-05T19:49:57.575Z,34.47
2018-06-05T19:52:31.883Z,34.53
2018-06-05T19:55:06.163Z,33.87
2018-06-05T19:57:40.576Z,33.80
2018-06-05T20:00:14.995Z,34.83
2018-06-05T20:02:49.396Z,34.97
2018-06-05T20:05:23.720Z,35.13
2018-06-05T20:07:58.087Z,35.07
2018-06-05T20:10:32.756Z,36.13
2018-06-05T20:13:07.121Z,35.33
2018-06-05T20:15:41.392Z,35.73
2018-06-05T20:18:15.851Z,37.60
2018-06-05T20:20:50.425Z,35.67
2018-06-05T20:23:24.744Z,36.43
2018-06-05T20:25:59.126Z,37.63
2018-06-05T20:28:33.536Z,37.53
2018-06-05T20:31:08.017Z,39.63
2018-06-05T20:33:42.232Z,37.37
2018-06-05T20:36:16.567Z,37.50
2018-06-05T20:38:50.914Z,36.43
2018-06-05T20:41:25.309Z,38.20
2018-06-05T20:43:59.722Z,38.53
2018-06-05T20:46:34.109Z,38.20
2018-06-05T20:49:08.848Z,38.30
2018-06-05T20:51:43.007Z,36.97
2018-06-05T20:54:17.419Z,38.90
2018-06-05T20:56:51.771Z,38.33
2018-06-05T20:59:26.100Z,38.63
2018-06-05T21:02:00.399Z,38.93
2018-06-05T21:04:34.903Z,38.60
2018-06-05T21:07:09.367Z,36.93
2018-06-05T21:09:43.675Z,39.83
2018-06-05T21:12:18.481Z,40.20
2018-06-05T21:14:52.635Z,38.00
2018-06-05T21:17:27.111Z,39.47
2018-06-05T21:20:01.536Z,38.37
2018-06-05T21:22:35.907Z,39.13
2018-06-05T21:25:10.368Z,37.53
2018-06-05T21:27:44.800Z,38.97
2018-06-05T21:30:19.535Z,38.47
2018-06-05T21:32:53.647Z,37.20
2018-06-05T21:35:28.016Z,36.30
2018-06-05T21:38:02.304Z,37.27
2018-06-05T21:40:36.656Z,38.03
2018-06-05T21:43:11.007Z,37.07
2018-06-05T21:45:45.384Z,37.27
2018-06-05T21:48:19.787Z,36.67
2018-06-05T21:50:54.140Z,35.47
2018-06-05T21:53:28.491Z,35.47
2018-06-05T21:56:02.851Z,36.90
2018-06-05T21:58:37.263Z,35.47
2018-06-05T22:01:11.612Z,34.57
2018-06-05T22:03:45.999Z,35.80
2018-06-05T22:06:20.332Z,34.93
2018-06-05T22:08:54.632Z,35.53
2018-06-05T22:11:29.135Z,35.77
2018-06-05T22:14:04.523Z,31.97
2018-06-05T22:16:38.903Z,32.13
2018-06-05T22:19:13.356Z,33.33
2018-06-05T22:21:47.664Z,35.60
2018-06-05T22:24:22.101Z,33.23
2018-06-05T22:26:56.895Z,34.97
2018-06-05T22:29:31.616Z,33.20
2018-06-05T22:32:06.007Z,34.43
2018-06-05T22:34:40.656Z,34.20
2018-06-05T22:37:15.151Z,35.30
2018-06-05T22:39:49.479Z,34.07
2018-06-05T22:42:23.948Z,34.93
2018-06-05T22:44:58.517Z,34.03
2018-06-05T22:47:32.957Z,34.90
2018-06-05T22:50:07.606Z,35.73
2018-06-05T22:52:42.172Z,34.97
2018-06-05T22:55:16.565Z,35.40
2018-06-05T22:57:51.168Z,35.90
2018-06-05T23:00:30.192Z,34.70
2018-06-05T23:03:05.105Z,36.50
2018-06-05T23:05:39.509Z,34.57
2018-06-05T23:08:13.828Z,35.40
2018-06-05T23:10:48.317Z,33.90
2018-06-05T23:13:22.728Z,33.87
2018-06-05T23:15:57.081Z,34.80
2018-06-05T23:18:31.612Z,34.33
2018-06-05T23:21:06.784Z,34.30
2018-06-05T23:23:41.480Z,35.77
2018-06-05T23:26:15.989Z,36.10
2018-06-05T23:28:50.413Z,35.67
2018-06-05T23:31:24.820Z,34.53
2018-06-05T23:33:59.369Z,34.23
2018-06-05T23:36:33.874Z,34.43
2018-06-05T23:39:08.433Z,35.53
2018-06-05T23:41:42.841Z,36.63
2018-06-05T23:44:17.156Z,35.50
2018-06-05T23:47:13.968Z,34.03
2018-06-05T23:49:48.456Z,34.50
2018-06-05T23:52:23.180Z,35.23
2018-06-05T23:54:57.656Z,34.83
2018-06-05T23:57:32.113Z,34.30
